Main page
METAR-TAF:

METAR-TAF

Airports :

Ibadan, Nigeria

Ibadan Airport

latitude: 07-26N, longitude: 003-54E, elevation: 234 m

Current weather observation

The report was made 10 hours and 38 minutes ago, at 11:00 UTC
Wind 2 kt from the East
Temperature 30°C
Humidity 22%
Pressure 1012 hPa
Visibility: 5000 m
haze

METAR: DNIB 231100Z 09002KT 5000 HZ NSC 30/06 Q1012

Time: 22:38 (21:38 UTC)

Forecast

The report was made 5 hours and 53 minutes ago, at 15:45 UTC
Forecast valid from 23 at 18 UTC to 24 at 24 UTC
Wind 2 kt from variable directions
Visibility 10 km or more
Temporary
from 24 at 07 UTC to 24 at 11 UTC
Visibility: 5000 m
Few clouds at a height of 1100 ft
haze
Probability 30%
from 24 at 08 UTC to 24 at 10 UTC
Visibility: 3000 m
Becoming
from 24 at 11 UTC to 24 at 13 UTC
Wind 10 kt from the Southeast

TAF: DNIB 231545Z 2318/2424 VRB02KT 9999 NSC TEMPO 2407/2411 5000 FEW011 HZ PROB30 2408/2410 3000 BECMG 2411/2413 14010KT NSC

Weather observations and forecasts of more than 4000 airports (METAR and TAF reports).

The available stations are represented by yellow and red dots on the map.

Hover mouse over dot to see the name of the station.

Then click to see weather observations and forecasts.

To change the map : click on the green buttons with a black cross to zoom in, on the green button with a dash to zoom out, or on the green arrows for adjacent maps.


METAR-TAF: